Time;durP1;ratioP1;P1;durP2;ratioP2;P2;SDS_P1;SDS_P2;PMS_P1;PMS_P2;Temp;Humidity;BMP_temperature;BMP_pressure;BME280_temperature;BME280_humidity;BME280_pressure;Samples;Min_cycle;Max_cycle;Signal;HPM_P1;HPM_P2
2021/01/10 00:01:06;;;;;;;38.60;22.65;;;;;;;0.63;76.73;99653.02;124743;1143;23505;-68
2021/01/10 00:03:33;;;;;;;35.05;20.25;;;;;;;0.69;76.51;99664.84;124604;1144;22696;-68
2021/01/10 00:06:01;;;;;;;32.60;19.67;;;;;;;0.66;75.97;99674.09;124825;1144;23193;-68
2021/01/10 00:08:28;;;;;;;34.10;19.43;;;;;;;0.64;77.11;99670.77;124647;1143;22761;-68
2021/01/10 00:10:55;;;;;;;34.15;19.25;;;;;;;0.63;76.98;99665.59;124881;1142;22696;-68
2021/01/10 00:13:23;;;;;;;32.83;19.53;;;;;;;0.65;77.42;99666.23;124703;1143;22676;-68
2021/01/10 00:15:50;;;;;;;37.07;18.47;;;;;;;0.65;76.86;99668.92;124763;1144;22745;-67
2021/01/10 00:18:17;;;;;;;28.30;17.30;;;;;;;0.65;77.02;99671.60;124692;1143;22707;-67
2021/01/10 00:20:45;;;;;;;30.70;18.73;;;;;;;0.65;77.36;99680.47;124797;1143;22749;-68
2021/01/10 00:23:12;;;;;;;35.70;20.25;;;;;;;0.66;76.82;99675.94;124681;1142;22776;-68
2021/01/10 00:25:41;;;;;;;35.60;20.10;;;;;;;0.66;77.33;99683.98;123596;1144;22934;-67
2021/01/10 00:28:09;;;;;;;35.87;19.27;;;;;;;0.65;77.47;99683.16;120010;1144;22943;-67
2021/01/10 00:30:36;;;;;;;34.60;18.87;;;;;;;0.65;76.75;99680.47;120138;1144;26386;-67
2021/01/10 00:33:04;;;;;;;36.80;20.60;;;;;;;0.65;77.04;99672.43;120075;1144;23211;-67
2021/01/10 00:35:32;;;;;;;33.43;20.87;;;;;;;0.64;76.50;99677.98;124650;1144;22737;-68
2021/01/10 00:37:59;;;;;;;33.00;20.00;;;;;;;0.63;77.33;99679.00;124822;1142;22660;-68
2021/01/10 00:40:27;;;;;;;37.73;20.43;;;;;;;0.62;77.63;99682.70;124712;1144;22739;-67
2021/01/10 00:42:54;;;;;;;36.00;20.45;;;;;;;0.64;77.36;99677.98;124825;1144;22705;-67
2021/01/10 00:45:22;;;;;;;31.63;18.90;;;;;;;0.65;77.71;99679.64;124621;1142;22649;-68
2021/01/10 00:47:54;;;;;;;34.20;19.10;;;;;;;0.66;77.18;99678.63;124725;1143;22678;-68
2021/01/10 00:50:29;;;;;;;;;;;;;;;0.67;76.25;99677.61;124522;1144;22716;-69
2021/01/10 00:52:56;;;;;;;25.45;15.03;;;;;;;0.67;77.07;99680.29;124869;1142;21510;-68
2021/01/10 00:55:25;;;;;;;36.43;20.37;;;;;;;0.67;77.74;99680.29;124572;1142;23469;-68
2021/01/10 00:57:53;;;;;;;36.13;19.20;;;;;;;0.66;77.07;99683.98;124552;1143;22775;-67
2021/01/10 01:00:22;;;;;;;36.05;19.80;;;;;;;0.67;77.53;99683.80;124466;1144;22654;-68
2021/01/10 01:02:51;;;;;;;32.15;18.75;;;;;;;0.68;77.30;99688.14;124650;1144;22775;-67
2021/01/10 01:05:21;;;;;;;34.27;20.20;;;;;;;0.69;77.39;99679.08;124551;1143;22668;-67
2021/01/10 01:07:49;;;;;;;35.15;20.10;;;;;;;0.71;76.77;99681.58;124722;1143;22661;-68
2021/01/10 01:10:19;;;;;;;35.80;19.47;;;;;;;0.72;76.35;99691.28;124533;1144;22676;-67
2021/01/10 01:12:46;;;;;;;36.73;20.80;;;;;;;0.71;76.43;99681.58;124736;1143;22715;-67
2021/01/10 01:15:14;;;;;;;37.87;20.17;;;;;;;0.74;77.20;99683.02;124598;1142;22761;-68
2021/01/10 01:17:41;;;;;;;37.57;21.70;;;;;;;0.74;76.65;99689.22;124698;1142;22662;-68
2021/01/10 01:20:10;;;;;;;40.50;22.87;;;;;;;0.75;77.41;99676.64;124656;1142;23293;-67
2021/01/10 01:22:38;;;;;;;39.87;22.27;;;;;;;0.75;76.85;99679.32;124830;1143;22759;-68
2021/01/10 01:25:09;;;;;;;39.50;21.30;;;;;;;0.73;77.36;99676.00;124724;1144;22746;-67
2021/01/10 01:27:37;;;;;;;34.60;20.20;;;;;;;0.70;77.31;99675.38;124716;1144;22767;-68
2021/01/10 01:30:04;;;;;;;39.50;21.15;;;;;;;0.71;76.95;99670.85;124666;1143;23230;-67
2021/01/10 01:32:35;;;;;;;34.15;20.45;;;;;;;0.72;77.27;99677.88;124579;1142;23416;-67
2021/01/10 01:35:04;;;;;;;36.37;20.13;;;;;;;0.70;77.25;99678.06;124739;1144;22772;-68
2021/01/10 01:37:34;;;;;;;41.90;22.15;;;;;;;0.70;77.20;99678.06;124533;1142;22749;-68
2021/01/10 01:40:05;;;;;;;40.85;20.60;;;;;;;0.69;76.26;99678.25;124767;1142;22666;-67
2021/01/10 01:42:32;;;;;;;41.63;21.60;;;;;;;0.67;77.72;99674.92;124789;1142;23891;-67
2021/01/10 01:45:01;;;;;;;36.30;22.15;;;;;;;0.66;77.39;99674.09;124657;1144;22689;-67
2021/01/10 01:47:28;;;;;;;35.93;20.37;;;;;;;0.67;77.09;99672.25;124698;1143;22682;-67
2021/01/10 01:49:57;;;;;;;37.40;21.10;;;;;;;0.66;77.78;99673.27;124512;1144;23361;-67
2021/01/10 01:52:24;;;;;;;39.70;23.03;;;;;;;0.65;77.10;99675.11;124649;1144;22665;-67
2021/01/10 01:54:52;;;;;;;41.03;22.03;;;;;;;0.62;76.79;99663.93;124678;1143;22792;-67
2021/01/10 01:57:20;;;;;;;36.90;21.63;;;;;;;0.62;76.74;99683.53;124410;1144;22776;-68
2021/01/10 01:59:47;;;;;;;37.17;20.97;;;;;;;0.64;77.13;99675.30;124723;1142;22775;-67
2021/01/10 02:02:16;;;;;;;36.70;21.10;;;;;;;0.63;77.70;99687.05;124661;1143;22694;-67
2021/01/10 02:04:59;;;;;;;38.70;22.75;;;;;;;0.64;77.85;99686.86;124809;1143;22753;-67
2021/01/10 02:07:36;;;;;;;37.20;22.43;;;;;;;0.65;76.57;99693.88;124587;1144;22687;-67
2021/01/10 02:10:11;;;;;;;41.23;22.17;;;;;;;0.66;77.40;99692.03;124774;1143;22757;-68
2021/01/10 02:12:48;;;;;;;40.40;22.55;;;;;;;0.68;77.03;99690.83;124605;1142;23303;-68
2021/01/10 02:15:16;;;;;;;;;;;;;;;0.68;77.56;99698.04;124705;1143;22707;-67
2021/01/10 02:17:46;;;;;;;35.67;19.63;;;;;;;0.66;77.12;99700.08;124521;1143;21409;-67
2021/01/10 02:20:34;;;;;;;36.20;21.95;;;;;;;0.66;78.13;99697.39;124516;1144;23306;-68
2021/01/10 02:23:09;;;;;;;37.85;22.65;;;;;;;0.64;77.10;99691.39;124614;1142;22813;-68
2021/01/10 02:25:36;;;;;;;44.05;24.60;;;;;;;0.64;77.97;99694.90;124594;1144;22671;-67
2021/01/10 02:28:05;;;;;;;42.90;23.83;;;;;;;0.64;77.03;99694.06;124623;1144;22757;-67
2021/01/10 02:30:32;;;;;;;43.05;23.90;;;;;;;0.61;78.15;99694.44;124652;1144;23402;-67
2021/01/10 02:33:04;;;;;;;52.17;29.23;;;;;;;0.62;77.46;99693.42;124459;1144;22748;-68
2021/01/10 02:35:31;;;;;;;46.70;26.00;;;;;;;0.64;77.19;99697.58;124429;1144;23651;-67
2021/01/10 02:38:18;;;;;;;43.35;24.25;;;;;;;0.67;78.31;99686.48;124535;1144;22776;-67
2021/01/10 02:40:54;;;;;;;44.93;24.50;;;;;;;0.70;77.51;99687.95;124657;1144;22776;-68
2021/01/10 02:43:23;;;;;;;52.33;29.23;;;;;;;0.73;78.22;99689.40;124471;1144;22720;-68
2021/01/10 02:45:52;;;;;;;56.00;30.55;;;;;;;0.72;77.62;99695.81;124636;1143;23360;-68
2021/01/10 02:50:05;;;;;;;44.63;24.70;;;;;;;0.70;77.96;99687.95;120144;1147;26376;-67
2021/01/10 02:52:32;;;;;;;40.85;23.35;;;;;;;0.68;77.30;99696.19;124387;1147;22676;-68
2021/01/10 02:55:00;;;;;;;46.40;26.93;;;;;;;0.67;77.52;99691.84;124252;1147;22679;-67
2021/01/10 02:57:32;;;;;;;49.25;27.50;;;;;;;0.67;77.82;99688.33;124402;1147;22683;-68
2021/01/10 03:00:00;;;;;;;48.40;27.55;;;;;;;0.62;78.62;99688.89;124112;1147;23305;-67
2021/01/10 03:02:27;;;;;;;49.10;28.05;;;;;;;0.67;78.87;99691.02;124206;1147;23975;-68
2021/01/10 03:04:55;;;;;;;46.40;26.75;;;;;;;0.60;78.83;99682.05;124282;1147;22769;-67
2021/01/10 03:07:22;;;;;;;44.57;25.33;;;;;;;0.71;78.44;99692.30;124174;1147;22727;-67
2021/01/10 03:09:50;;;;;;;46.73;26.57;;;;;;;0.70;77.86;99687.95;124016;1147;23472;-67
2021/01/10 03:12:27;;;;;;;46.70;24.95;;;;;;;0.72;77.71;99688.60;124299;1145;22738;-68
2021/01/10 03:14:58;;;;;;;47.45;25.57;;;;;;;0.72;77.93;99688.60;124286;1146;22696;-68
2021/01/10 03:17:35;;;;;;;42.50;23.55;;;;;;;0.74;78.52;99694.58;124362;1147;23450;-68
2021/01/10 03:20:09;;;;;;;36.48;23.30;;;;;;;0.74;77.72;99697.26;124112;1146;23329;-68
2021/01/10 03:22:36;;;;;;;43.30;24.70;;;;;;;0.76;77.82;99697.07;124326;1147;22686;-66
2021/01/10 03:25:05;;;;;;;38.20;23.05;;;;;;;0.76;78.57;99697.91;124108;1147;22728;-66
2021/01/10 03:27:33;;;;;;;41.10;23.73;;;;;;;0.76;78.11;99695.22;124214;1148;22766;-66
2021/01/10 03:30:06;;;;;;;41.80;22.80;;;;;;;0.75;77.92;99690.88;124020;1147;23662;-66
2021/01/10 03:32:34;;;;;;;43.13;23.43;;;;;;;0.72;77.78;99691.28;124285;1148;22748;-66
2021/01/10 03:35:04;;;;;;;46.87;24.37;;;;;;;0.70;77.50;99686.11;124212;1148;23518;-66
2021/01/10 03:37:38;;;;;;;38.57;21.83;;;;;;;0.70;78.46;99694.16;119580;1148;25408;-66
2021/01/10 03:40:07;;;;;;;45.70;24.83;;;;;;;0.73;78.00;99698.28;119595;1148;26394;-66
2021/01/10 03:42:35;;;;;;;41.00;22.80;;;;;;;0.77;78.20;99696.05;124117;1146;22795;-67
2021/01/10 03:45:04;;;;;;;37.95;22.65;;;;;;;0.78;77.63;99690.50;124289;1148;22718;-67
2021/01/10 03:47:31;;;;;;;36.47;21.87;;;;;;;0.78;77.67;99689.67;124084;1146;23322;-67
2021/01/10 03:49:59;;;;;;;45.00;23.05;;;;;;;0.78;77.99;99687.82;124258;1148;22739;-67
2021/01/10 03:52:27;;;;;;;47.23;24.53;;;;;;;0.79;77.77;99694.02;124115;1148;22694;-67
2021/01/10 03:54:55;;;;;;;42.05;22.80;;;;;;;0.77;78.00;99688.01;124282;1148;22673;-67
2021/01/10 03:57:23;;;;;;;40.63;23.17;;;;;;;0.77;78.44;99693.38;124169;1148;22774;-67
2021/01/10 03:59:50;;;;;;;46.63;24.63;;;;;;;0.76;77.73;99692.54;124371;1148;22657;-67
2021/01/10 04:02:17;;;;;;;42.95;23.05;;;;;;;0.73;78.40;99698.28;124212;1147;24137;-67
2021/01/10 04:04:45;;;;;;;42.25;24.45;;;;;;;0.73;78.22;99698.28;124392;1148;22891;-67
2021/01/10 04:07:14;;;;;;;40.20;23.55;;;;;;;0.75;78.72;99698.09;124084;1147;22703;-67
2021/01/10 04:09:41;;;;;;;41.07;23.07;;;;;;;0.73;77.75;99698.28;124266;1148;22688;-67
2021/01/10 04:12:08;;;;;;;42.80;24.20;;;;;;;0.73;77.64;99706.32;124110;1147;22706;-67
2021/01/10 04:14:36;;;;;;;44.10;23.27;;;;;;;0.73;77.26;99710.85;124276;1147;22791;-67
2021/01/10 04:17:03;;;;;;;38.35;22.75;;;;;;;0.73;78.01;99708.17;124102;1146;22679;-67
2021/01/10 04:19:31;;;;;;;42.95;23.65;;;;;;;0.74;78.29;99710.67;124169;1148;22743;-67
2021/01/10 04:21:58;;;;;;;40.25;23.70;;;;;;;0.74;77.67;99716.03;124240;1148;22743;-66
2021/01/10 04:24:26;;;;;;;44.85;25.00;;;;;;;0.74;77.85;99707.16;124323;1148;23883;-67
2021/01/10 04:26:53;;;;;;;41.23;24.10;;;;;;;0.74;77.30;99716.03;124258;1147;23260;-67
2021/01/10 04:29:21;;;;;;;67.50;30.95;;;;;;;0.73;77.72;99714.37;124158;1148;23305;-67
2021/01/10 04:31:54;;;;;;;52.90;29.15;;;;;;;0.74;77.61;99724.08;124247;1145;22962;-67
2021/01/10 04:34:21;;;;;;;70.47;31.63;;;;;;;0.75;77.17;99717.69;124158;1148;22681;-67
2021/01/10 04:36:49;;;;;;;86.60;34.90;;;;;;;0.75;77.36;99723.05;124269;1147;22697;-67
2021/01/10 04:39:16;;;;;;;48.80;25.63;;;;;;;0.78;77.46;99725.37;124074;1148;22686;-67
2021/01/10 04:41:44;;;;;;;48.85;26.80;;;;;;;0.79;77.87;99729.71;124385;1145;22675;-67
2021/01/10 04:44:13;;;;;;;48.50;25.25;;;;;;;0.79;78.13;99731.56;124028;1149;22716;-67
2021/01/10 04:46:40;;;;;;;49.80;25.03;;;;;;;0.81;77.34;99740.25;124101;1148;22839;-67
2021/01/10 04:49:08;;;;;;;49.20;26.35;;;;;;;0.82;78.03;99737.38;124150;1147;22810;-67
2021/01/10 04:51:38;;;;;;;71.30;32.45;;;;;;;0.81;77.80;99749.13;124169;1145;22710;-67
2021/01/10 04:54:06;;;;;;;61.97;29.73;;;;;;;0.78;77.26;99749.50;124118;1146;22663;-67
2021/01/10 04:56:34;;;;;;;76.45;33.45;;;;;;;0.78;77.71;99749.50;124034;1148;23511;-67
2021/01/10 04:59:03;;;;;;;52.75;26.45;;;;;;;0.75;77.83;99749.05;124302;1145;22827;-67
2021/01/10 05:01:36;;;;;;;67.27;31.10;;;;;;;0.73;77.31;99754.59;124207;1148;23502;-67
2021/01/10 05:04:04;;;;;;;47.35;26.25;;;;;;;0.71;78.00;99759.34;124145;1149;23564;-67
2021/01/10 05:06:35;;;;;;;52.17;25.70;;;;;;;0.69;77.70;99764.05;124207;1148;22790;-67
2021/01/10 05:09:05;;;;;;;63.60;29.80;;;;;;;0.70;77.79;99763.88;124203;1148;23593;-67
2021/01/10 05:11:34;;;;;;;56.40;26.77;;;;;;;0.70;77.64;99763.88;124327;1146;23293;-67
2021/01/10 05:14:03;;;;;;;67.65;31.10;;;;;;;0.68;77.62;99767.75;124212;1147;22836;-67
2021/01/10 05:16:32;;;;;;;77.57;36.20;;;;;;;0.69;77.80;99770.25;121812;1148;23704;-67
2021/01/10 05:19:02;;;;;;;66.30;32.70;;;;;;;0.69;78.59;99774.78;124369;1148;22798;-67
2021/01/10 05:21:29;;;;;;;60.70;30.65;;;;;;;0.70;78.18;99779.95;124200;1145;22658;-68
2021/01/10 05:23:58;;;;;;;58.37;31.00;;;;;;;0.72;78.13;99782.45;124150;1148;22739;-68
2021/01/10 05:26:32;;;;;;;77.75;38.00;;;;;;;0.71;77.58;99778.11;124042;1148;23338;-68
2021/01/10 05:29:07;;;;;;;64.55;32.40;;;;;;;0.70;77.51;99779.13;124340;1146;22680;-68
2021/01/10 05:31:44;;;;;;;62.85;31.45;;;;;;;0.72;77.84;99771.73;124191;1147;22693;-68
2021/01/10 05:34:16;;;;;;;57.30;29.33;;;;;;;0.75;77.95;99779.37;124197;1148;22692;-68
2021/01/10 05:36:43;;;;;;;54.43;27.43;;;;;;;0.77;77.73;99777.34;124123;1146;23942;-68
2021/01/10 05:39:23;;;;;;;47.65;26.30;;;;;;;0.82;78.19;99774.09;124315;1148;22773;-68
2021/01/10 05:41:54;;;;;;;41.60;24.30;;;;;;;0.86;78.55;99783.44;124148;1146;23508;-68
2021/01/10 05:44:25;;;;;;;47.45;27.45;;;;;;;0.89;78.14;99783.03;124244;1145;22687;-68
2021/01/10 05:47:02;;;;;;;50.63;26.90;;;;;;;0.89;77.23;99789.23;120871;1148;22942;-68
2021/01/10 05:49:30;;;;;;;48.00;26.40;;;;;;;0.88;77.37;99790.25;124147;1148;22765;-68
2021/01/10 05:52:08;;;;;;;47.97;25.17;;;;;;;0.89;77.78;99788.40;124088;1148;22705;-68
2021/01/10 05:54:53;;;;;;;41.65;23.55;;;;;;;0.88;78.35;99787.56;124195;1148;23473;-68
2021/01/10 05:57:27;;;;;;;47.10;24.75;;;;;;;0.88;78.30;99786.73;124288;1148;22715;-68
2021/01/10 05:59:55;;;;;;;53.60;27.90;;;;;;;0.86;78.28;99795.00;124380;1148;22696;-68
2021/01/10 06:02:32;;;;;;;58.70;30.70;;;;;;;0.83;77.37;99791.86;124067;1149;22809;-68
2021/01/10 06:05:10;;;;;;;44.60;26.20;;;;;;;0.82;77.70;99790.19;124089;1147;23510;-68
2021/01/10 06:07:39;;;;;;;48.07;25.70;;;;;;;0.82;77.77;99800.92;124166;1148;22771;-68
2021/01/10 06:10:08;;;;;;;47.93;25.40;;;;;;;0.82;78.03;99795.55;124346;1145;22736;-68
2021/01/10 06:12:35;;;;;;;45.40;24.35;;;;;;;0.84;77.59;99802.40;123985;1147;22678;-68
2021/01/10 06:15:16;;;;;;;42.77;22.67;;;;;;;0.86;77.51;99808.41;124211;1148;22688;-68
2021/01/10 06:17:47;;;;;;;46.00;26.53;;;;;;;0.87;78.69;99812.73;124170;1148;22714;-68
2021/01/10 06:20:34;;;;;;;44.73;24.50;;;;;;;0.88;77.90;99811.71;124447;1147;22710;-68
2021/01/10 06:23:06;;;;;;;48.20;26.85;;;;;;;0.88;77.50;99817.07;124182;1148;22709;-68
2021/01/10 06:25:37;;;;;;;46.40;23.25;;;;;;;0.88;77.46;99818.92;124391;1148;22678;-68
2021/01/10 06:28:12;;;;;;;47.50;25.25;;;;;;;0.89;78.00;99815.22;124237;1147;22719;-68
2021/01/10 06:30:59;;;;;;;41.90;23.75;;;;;;;0.88;77.99;99818.92;124319;1145;22707;-68
2021/01/10 06:33:28;;;;;;;38.10;22.40;;;;;;;0.86;77.36;99821.82;124164;1146;22698;-68
2021/01/10 06:36:06;;;;;;;44.10;24.95;;;;;;;0.86;78.58;99819.14;124351;1146;22691;-68
2021/01/10 06:38:37;;;;;;;40.70;22.65;;;;;;;0.87;78.54;99822.62;124454;1144;22707;-68
2021/01/10 06:41:26;;;;;;;42.13;23.33;;;;;;;0.89;78.24;99831.31;124660;1144;22697;-68
2021/01/10 06:43:59;;;;;;;37.73;20.70;;;;;;;0.91;77.64;99840.02;124541;1143;22693;-68
2021/01/10 06:46:26;;;;;;;41.15;22.30;;;;;;;0.92;78.84;99842.52;124589;1143;22711;-68
2021/01/10 06:48:54;;;;;;;38.90;22.10;;;;;;;0.94;77.83;99845.01;124510;1144;23353;-68
2021/01/10 06:51:21;;;;;;;36.90;21.80;;;;;;;0.94;77.75;99851.20;124627;1144;23363;-68
2021/01/10 06:53:49;;;;;;;44.15;23.40;;;;;;;0.96;78.76;99851.85;124407;1144;22681;-68
2021/01/10 06:56:17;;;;;;;40.10;22.60;;;;;;;0.97;77.92;99853.52;122494;1144;24581;-67
2021/01/10 06:59:11;;;;;;;36.57;21.20;;;;;;;0.99;78.56;99858.70;124342;1143;22671;-68
2021/01/10 07:01:58;;;;;;;40.95;23.95;;;;;;;0.97;78.54;99855.37;122934;1144;24723;-67
2021/01/10 07:04:48;;;;;;;39.50;21.90;;;;;;;0.94;77.62;99864.63;124521;1144;22692;-66
2021/01/10 07:07:30;;;;;;;36.35;21.15;;;;;;;0.92;78.24;99861.28;124646;1142;22686;-68
2021/01/10 07:09:59;;;;;;;37.37;21.63;;;;;;;0.88;77.79;99870.72;124547;1143;22704;-69
2021/01/10 07:12:27;;;;;;;41.40;21.60;;;;;;;0.86;78.20;99864.73;124683;1144;22657;-67
2021/01/10 07:15:17;;;;;;;38.90;20.65;;;;;;;0.85;78.89;99871.12;124372;1144;22682;-67
2021/01/10 07:18:04;;;;;;;40.30;23.20;;;;;;;0.84;78.62;99869.45;124646;1144;22682;-70
2021/01/10 07:20:39;;;;;;;42.07;22.40;;;;;;;0.85;77.95;99876.48;124576;1142;22793;-70
2021/01/10 07:23:29;;;;;;;35.85;19.80;;;;;;;0.85;78.52;99881.84;124562;1143;22671;-68
2021/01/10 07:25:58;;;;;;;33.30;20.30;;;;;;;0.85;78.82;99881.02;124454;1144;22795;-70
2021/01/10 07:28:36;;;;;;;37.05;22.45;;;;;;;0.86;78.58;99882.68;124615;1143;22675;-69
2021/01/10 07:31:13;;;;;;;38.40;20.50;;;;;;;0.84;79.20;99885.55;124526;1144;23429;-68
2021/01/10 07:33:41;;;;;;;35.57;21.47;;;;;;;0.84;78.62;99882.86;124594;1144;22711;-68
2021/01/10 07:36:09;;;;;;;42.05;21.65;;;;;;;0.84;78.36;99880.18;124449;1143;22664;-66
2021/01/10 07:38:37;;;;;;;39.50;22.75;;;;;;;0.85;78.14;99887.21;124781;1143;23473;-67
2021/01/10 07:41:24;;;;;;;42.50;22.30;;;;;;;0.87;79.38;99881.63;124634;1143;23774;-69
2021/01/10 07:43:52;;;;;;;39.55;22.80;;;;;;;0.89;79.30;99890.33;124670;1143;22907;-69
2021/01/10 07:46:54;;;;;;;40.70;22.50;;;;;;;0.94;79.64;99887.93;124465;1144;23501;-69
2021/01/10 07:49:26;;;;;;;38.07;21.27;;;;;;;0.93;78.89;99887.09;124423;1144;22767;-69
2021/01/10 07:51:53;;;;;;;38.20;22.25;;;;;;;0.94;79.41;99887.93;124497;1142;22688;-69
2021/01/10 07:54:48;;;;;;;44.25;26.60;;;;;;;0.97;78.58;99887.56;124679;1144;22888;-69
2021/01/10 07:57:41;;;;;;;41.60;23.40;;;;;;;1.00;78.70;99892.56;124495;1144;22821;-69
2021/01/10 08:00:09;;;;;;;44.77;25.37;;;;;;;1.02;78.10;99895.86;124129;1149;22850;-69
2021/01/10 08:02:49;;;;;;;46.50;24.65;;;;;;;1.03;79.02;99892.16;123873;1148;22836;-69
2021/01/10 08:05:20;;;;;;;40.00;22.85;;;;;;;1.04;78.59;99894.66;124166;1148;22725;-67
2021/01/10 08:07:52;;;;;;;37.33;21.87;;;;;;;1.03;78.84;99898.36;123993;1148;22719;-69
2021/01/10 08:10:20;;;;;;;36.77;21.23;;;;;;;1.05;78.28;99900.86;124182;1146;22859;-67
2021/01/10 08:12:48;;;;;;;37.35;21.65;;;;;;;1.09;79.14;99909.37;124119;1146;23509;-67
2021/01/10 08:15:15;;;;;;;39.17;20.53;;;;;;;1.12;78.51;99900.95;124097;1148;22719;-67
2021/01/10 08:17:43;;;;;;;39.67;22.97;;;;;;;1.12;78.23;99895.59;124081;1148;23823;-67
2021/01/10 08:20:11;;;;;;;37.90;22.27;;;;;;;1.13;79.40;99906.14;124199;1147;22756;-67
2021/01/10 08:22:39;;;;;;;37.90;22.20;;;;;;;1.15;79.05;99906.78;124017;1148;22810;-68
2021/01/10 08:25:17;;;;;;;39.83;22.23;;;;;;;1.17;79.04;99901.20;124141;1148;24154;-66
2021/01/10 08:27:45;;;;;;;39.43;22.77;;;;;;;1.16;78.63;99903.05;124068;1148;23572;-68
2021/01/10 08:30:14;;;;;;;38.07;21.37;;;;;;;1.17;78.20;99904.72;124261;1148;22734;-67
2021/01/10 08:32:41;;;;;;;33.50;21.00;;;;;;;1.17;78.37;99911.94;124081;1148;22747;-67
2021/01/10 08:35:09;;;;;;;39.15;20.75;;;;;;;1.17;78.42;99909.25;124217;1148;22753;-67
2021/01/10 08:37:37;;;;;;;38.75;20.85;;;;;;;1.15;79.19;99911.32;124301;1144;22706;-67
2021/01/10 08:40:07;;;;;;;40.50;21.85;;;;;;;1.15;78.19;99911.32;124620;1144;23936;-67
2021/01/10 08:42:34;;;;;;;40.15;22.85;;;;;;;1.16;78.31;99910.27;124542;1144;22686;-67
2021/01/10 08:45:21;;;;;;;35.90;21.13;;;;;;;1.17;78.28;99914.62;124409;1144;22704;-67
2021/01/10 08:47:49;;;;;;;42.25;24.00;;;;;;;1.18;78.47;99910.92;124463;1144;23531;-66
2021/01/10 08:50:17;;;;;;;45.87;25.73;;;;;;;1.16;78.62;99908.42;124623;1142;22689;-66
2021/01/10 08:52:54;;;;;;;50.87;28.30;;;;;;;1.17;78.97;99911.94;124514;1143;22675;-68
2021/01/10 08:55:39;;;;;;;38.75;21.82;;;;;;;1.17;78.18;99909.25;124706;1142;22795;-65
2021/01/10 08:58:08;;;;;;;36.30;19.73;;;;;;;1.16;77.97;99903.05;124518;1144;22649;-67
2021/01/10 09:00:38;;;;;;;33.83;19.87;;;;;;;1.20;78.19;99903.52;124696;1144;22900;-67
2021/01/10 09:03:16;;;;;;;32.43;19.23;;;;;;;1.21;78.05;99902.50;124386;1144;22696;-67
2021/01/10 09:05:44;;;;;;;36.00;20.10;;;;;;;1.22;78.17;99898.80;124482;1144;23500;-65
2021/01/10 09:08:35;;;;;;;38.90;21.90;;;;;;;1.22;77.88;99902.31;124445;1142;23309;-68
2021/01/10 09:11:16;;;;;;;31.70;19.27;;;;;;;1.25;78.33;99901.95;124507;1143;22719;-68
2021/01/10 09:13:44;;;;;;;36.27;20.90;;;;;;;1.25;78.11;99901.95;124278;1144;22730;-67
2021/01/10 09:16:12;;;;;;;35.97;21.13;;;;;;;1.26;77.89;99894.72;124460;1143;22665;-67
2021/01/10 09:18:40;;;;;;;42.05;21.65;;;;;;;1.26;78.55;99894.72;124517;1142;22710;-68
2021/01/10 09:21:15;;;;;;;35.95;21.55;;;;;;;1.25;77.83;99890.38;124623;1144;24062;-67
2021/01/10 09:23:53;;;;;;;35.90;20.37;;;;;;;1.24;77.84;99894.91;124298;1144;22684;-67
2021/01/10 09:26:30;;;;;;;36.10;20.15;;;;;;;1.24;77.40;99897.59;124635;1144;23576;-67
2021/01/10 09:28:59;;;;;;;37.03;19.98;;;;;;;1.25;77.54;99903.80;124386;1144;23272;-68
2021/01/10 09:31:56;;;;;;;40.37;23.20;;;;;;;1.23;77.91;99892.41;124387;1144;22793;-68
2021/01/10 09:34:24;;;;;;;38.73;22.43;;;;;;;1.24;78.20;99894.08;123999;1148;22876;-67
2021/01/10 09:37:04;;;;;;;41.75;23.75;;;;;;;1.26;78.28;99897.41;120809;1148;22958;-67
2021/01/10 09:39:39;;;;;;;47.50;25.17;;;;;;;1.26;78.08;99895.56;119287;1148;26227;-67
2021/01/10 09:42:07;;;;;;;47.80;24.70;;;;;;;1.27;78.31;99893.70;124101;1148;22718;-66
2021/01/10 09:44:34;;;;;;;42.10;23.47;;;;;;;1.27;77.81;99901.76;123989;1149;22745;-65
2021/01/10 09:47:02;;;;;;;45.77;25.37;;;;;;;1.29;78.50;99897.04;124116;1148;22808;-66
2021/01/10 09:49:30;;;;;;;43.80;24.80;;;;;;;1.28;77.83;99898.89;124071;1148;22787;-66
2021/01/10 09:52:00;;;;;;;45.77;23.27;;;;;;;1.29;77.40;99895.19;124021;1148;22708;-68
2021/01/10 09:54:29;;;;;;;40.90;21.93;;;;;;;1.31;78.68;99895.80;124176;1149;22723;-67
2021/01/10 09:56:57;;;;;;;41.65;22.20;;;;;;;1.34;77.80;99902.65;124011;1148;22813;-68
2021/01/10 09:59:38;;;;;;;39.40;23.67;;;;;;;1.34;78.49;99889.23;124202;1148;22734;-68
2021/01/10 10:02:10;;;;;;;45.57;24.60;;;;;;;1.38;77.71;99887.84;124043;1148;22726;-68
2021/01/10 10:04:40;;;;;;;46.40;24.40;;;;;;;1.41;78.06;99890.15;124196;1148;22744;-69
2021/01/10 10:07:07;;;;;;;43.80;24.30;;;;;;;1.42;78.17;99889.13;124105;1148;22712;-69
2021/01/10 10:09:45;;;;;;;46.00;24.70;;;;;;;1.43;77.76;99898.85;124139;1148;22736;-68
2021/01/10 10:12:13;;;;;;;38.70;22.55;;;;;;;1.45;78.41;99893.27;124491;1144;22694;-66
2021/01/10 10:15:00;;;;;;;43.40;24.35;;;;;;;1.45;77.43;99894.09;124535;1143;22791;-68
2021/01/10 10:17:32;;;;;;;42.27;23.80;;;;;;;1.47;77.79;99893.91;124321;1144;22776;-68
2021/01/10 10:19:59;;;;;;;38.23;22.23;;;;;;;1.47;77.57;99896.59;124734;1142;22766;-70
2021/01/10 10:22:28;;;;;;;40.45;21.55;;;;;;;1.47;77.63;99891.22;124473;1142;22779;-70
2021/01/10 10:24:58;;;;;;;39.00;21.80;;;;;;;1.46;77.56;99886.87;124512;1144;22716;-69
2021/01/10 10:27:27;;;;;;;39.33;22.07;;;;;;;1.47;77.98;99883.17;124409;1143;22904;-68
2021/01/10 10:29:58;;;;;;;35.30;20.65;;;;;;;1.46;77.95;99887.70;124639;1142;22682;-68
2021/01/10 10:32:26;;;;;;;39.30;23.17;;;;;;;1.47;76.98;99886.69;124475;1143;22791;-68
2021/01/10 10:34:53;;;;;;;44.50;24.20;;;;;;;1.48;77.09;99887.52;124689;1143;22721;-70
2021/01/10 10:37:21;;;;;;;36.45;21.90;;;;;;;1.47;77.53;99886.69;120168;1144;27367;-70
2021/01/10 10:39:48;;;;;;;37.73;20.83;;;;;;;1.48;77.48;99884.83;124517;1144;22758;-70
2021/01/10 10:42:17;;;;;;;35.75;18.95;;;;;;;1.49;76.47;99883.81;124333;1144;22761;-70
2021/01/10 10:44:45;;;;;;;30.17;18.10;;;;;;;1.51;76.77;99885.30;124673;1142;22725;-70
2021/01/10 10:47:13;;;;;;;42.27;20.53;;;;;;;1.52;76.79;99891.49;124384;1144;22692;-69
2021/01/10 10:49:41;;;;;;;38.77;22.73;;;;;;;1.55;76.56;99896.48;124542;1144;22759;-67
2021/01/10 10:52:10;;;;;;;35.50;23.20;;;;;;;1.53;76.92;99883.25;124420;1144;22707;-69
2021/01/10 10:54:47;;;;;;;46.70;25.00;;;;;;;1.56;76.27;99885.56;124600;1142;22769;-68
2021/01/10 10:57:15;;;;;;;57.45;28.50;;;;;;;1.56;76.89;99882.88;124413;1145;23800;-67
2021/01/10 10:59:43;;;;;;;45.43;24.27;;;;;;;1.56;76.17;99888.25;124606;1144;22709;-67
2021/01/10 11:02:11;;;;;;;43.75;23.00;;;;;;;1.56;75.77;99885.56;124699;1143;23514;-67
2021/01/10 11:04:41;;;;;;;41.33;22.50;;;;;;;1.54;75.67;99878.72;124461;1144;22941;-68
2021/01/10 11:07:09;;;;;;;38.50;21.50;;;;;;;1.52;76.33;99881.59;124757;1143;22776;-66
2021/01/10 11:09:37;;;;;;;41.70;21.65;;;;;;;1.49;76.03;99887.33;124356;1144;22733;-66
2021/01/10 11:12:10;;;;;;;44.27;23.63;;;;;;;1.50;76.57;99882.80;124666;1143;23399;-67
2021/01/10 11:14:38;;;;;;;46.95;24.25;;;;;;;1.53;76.67;99887.79;124305;1144;22699;-67
2021/01/10 11:17:10;;;;;;;41.07;23.43;;;;;;;1.55;76.63;99886.58;124657;1143;23710;-67
2021/01/10 11:19:37;;;;;;;43.65;23.75;;;;;;;1.59;76.56;99884.32;124476;1143;23460;-67
2021/01/10 11:22:06;;;;;;;38.00;22.35;;;;;;;1.61;76.57;99888.48;124573;1144;22689;-67
2021/01/10 11:24:34;;;;;;;41.83;22.83;;;;;;;1.63;75.81;99886.45;124501;1144;22774;-68
2021/01/10 11:27:02;;;;;;;44.17;25.20;;;;;;;1.63;75.45;99886.45;124825;1143;23509;-69
2021/01/10 11:29:29;;;;;;;47.47;25.17;;;;;;;1.63;75.38;99886.45;124436;1143;22850;-68
2021/01/10 11:31:57;;;;;;;55.20;26.70;;;;;;;1.63;76.04;99894.50;124691;1144;22768;-68
2021/01/10 11:34:24;;;;;;;49.90;25.60;;;;;;;1.64;75.44;99888.11;124558;1144;22665;-67
2021/01/10 11:36:53;;;;;;;60.35;30.60;;;;;;;1.65;75.77;99892.46;124433;1144;22691;-69